WetterOnline ( https://www.wetteronline.de )

Wetter aktuell Norden

Aktuelles Wetter: Norderney (16m)

6-stündlich | Neueste Meldungen
Ortszeit Temperatur Wetter
Sa, 28.01. 19:00 4.8° C bedeckt
Sa, 28.01. 13:00 3.9° C wolkig
Sa, 28.01. 7:00 3.0° C bewölkt
Sa, 28.01. 1:00 2.6° C bedeckt
Fr, 27.01. 19:00 3.2° C bedeckt
Fr, 27.01. 13:00 3.8° C bedeckt
Fr, 27.01. 7:00 4.1° C bedeckt
Fr, 27.01. 1:00 4.6° C bewölkt
Ortszeit Temperatur Wetter
Sa, 28.01. 19:30 4.4° C bedeckt
Sa, 28.01. 19:20 4.4° C bedeckt
Sa, 28.01. 19:10 4.6° C bedeckt
Sa, 28.01. 19:00 4.8° C bedeckt
Sa, 28.01. 18:50 4.8° C bedeckt
Sa, 28.01. 18:40 4.8° C bedeckt
Sa, 28.01. 18:30 4.6° C bedeckt
Sa, 28.01. 18:00 4.8° C bedeckt
Sa, 28.01. 17:30 4.9° C bedeckt
Sa, 28.01. 17:00 4.7° C bedeckt
Sa, 28.01. 16:30 4.7° C bedeckt
Ortszeit Relative Feuchte Sichtweite
Sa, 28.01. 19:00 88% 35 km
Sa, 28.01. 13:00 81% 35 km
Sa, 28.01. 7:00 73% 60 km
Sa, 28.01. 1:00 73% 50 km
Fr, 27.01. 19:00 76% 40 km
Fr, 27.01. 13:00 80% 60 km
Fr, 27.01. 7:00 81% 28 km
Fr, 27.01. 1:00 80% 11 km
Ortszeit Relative Feuchte Sichtweite
Sa, 28.01. 19:30 90% 35 km
Sa, 28.01. 19:20 90% -
Sa, 28.01. 19:10 89% -
Sa, 28.01. 19:00 88% 35 km
Sa, 28.01. 18:50 88% -
Sa, 28.01. 18:40 87% -
Sa, 28.01. 18:30 88% 30 km
Sa, 28.01. 18:00 87% 30 km
Sa, 28.01. 17:30 86% 30 km
Sa, 28.01. 17:00 87% 35 km
Sa, 28.01. 16:30 86% 30 km
Ortszeit Niederschlagsmenge Niederschlagsart
Sa, 28.01. 19:00 0.1 l/m2 in 12 Std. Regen
Sa, 28.01. 13:00 0.0 l/m2 in 6 Std. -
Sa, 28.01. 7:00 0.0 l/m2 in 12 Std. -
Sa, 28.01. 1:00 0.0 l/m2 in 6 Std. -
Fr, 27.01. 19:00 0.1 l/m2 in 12 Std. Sprühregen
Fr, 27.01. 13:00 0.1 l/m2 in 6 Std. Regen
Fr, 27.01. 7:00 0.0 l/m2 in 12 Std. -
Fr, 27.01. 1:00 0.0 l/m2 in 6 Std. -
Ortszeit Niederschlagsmenge Niederschlagsart
Sa, 28.01. 19:30 0.0 l/m2 in 30 Min -
Sa, 28.01. 19:20 keine Meldung -
Sa, 28.01. 19:10 keine Meldung -
Sa, 28.01. 19:00 0.0 l/m2 in 1 Std. Regen
Sa, 28.01. 18:50 keine Meldung -
Sa, 28.01. 18:40 keine Meldung -
Sa, 28.01. 18:30 0.0 l/m2 in 30 Min -
Sa, 28.01. 18:00 <0.05 l/m2 in 1 Std. Regen
Sa, 28.01. 17:30 0.0 l/m2 in 30 Min -
Sa, 28.01. 17:00 0.0 l/m2 in 1 Std. -
Sa, 28.01. 16:30 0.0 l/m2 in 30 Min -
Ortszeit Stärke Spitze Richtung
km/h Bft. km/h Grad Sektor
Sa, 28.01. 19:00 19 3 31 230° SW
Sa, 28.01. 13:00 17 3 24 230° SW
Sa, 28.01. 7:00 7 2 22 230° SW
Sa, 28.01. 1:00 11 2 25 30° NO
Fr, 27.01. 19:00 19 3 28 50° NO
Fr, 27.01. 13:00 18 3 40 60° NO
Fr, 27.01. 7:00 29 5 50 50° NO
Fr, 27.01. 1:00 29 5 47 50° NO
Ortszeit Stärke Spitze Richtung
km/h Bft. km/h Grad Sektor
Sa, 28.01. 19:30 18 3 29 220° SW
Sa, 28.01. 19:20 18 3 - 220° SW
Sa, 28.01. 19:10 19 3 - 220° SW
Sa, 28.01. 19:00 19 3 30 230° SW
Sa, 28.01. 18:50 19 3 - 230° SW
Sa, 28.01. 18:40 18 3 - 230° SW
Sa, 28.01. 18:30 17 3 26 230° SW
Sa, 28.01. 18:00 14 3 29 230° SW
Sa, 28.01. 17:30 14 3 29 240° SW
Sa, 28.01. 17:00 18 3 32 240° SW
Sa, 28.01. 16:30 14 3 32 240° SW
Ortszeit Untergrenze Bedeckung Gattung
total tief tief mittel hoch
Sa, 28.01. 19:00 810 m 8/8 8/8 - - -
Sa, 28.01. 13:00 990 m 7/8 1/8 - - -
Sa, 28.01. 7:00 780 m 8/8 7/8 - - -
Sa, 28.01. 1:00 630 m 8/8 8/8 - - -
Fr, 27.01. 19:00 600 m 8/8 8/8 - - -
Fr, 27.01. 13:00 540 m 8/8 8/8 - - -
Fr, 27.01. 7:00 690 m 8/8 8/8 - - -
Fr, 27.01. 1:00 570 m 7/8 7/8 - - -
Ortszeit Bedeckungsgrad in Achtel und Wolkenuntergrenze
Sa, 28.01. 19:30 8(780m)
Sa, 28.01. 19:20 8(780m)
Sa, 28.01. 19:10 8
Sa, 28.01. 19:00 8(810m)
Sa, 28.01. 18:50 8(810m)
Sa, 28.01. 18:40 8
Sa, 28.01. 18:30 1(570m) 8(870m)
Sa, 28.01. 18:00 7(600m) 8(780m)
Sa, 28.01. 17:30 1(570m) 3(720m) 8(960m)
Sa, 28.01. 17:00 8(960m)
Sa, 28.01. 16:30 8(1020m)
Ortszeit Luftdruck NN (hPa) Tendenz (hPa in 3 Std.)
Sa, 28.01. 19:00 1029 + 0,2
Sa, 28.01. 13:00 1029 - 1,0
Sa, 28.01. 7:00 1029 - 0,5
Sa, 28.01. 1:00 1030 - 0,5
Fr, 27.01. 19:00 1030 + 0,6
Fr, 27.01. 13:00 1030 0,0
Fr, 27.01. 7:00 1028 + 0,7
Fr, 27.01. 1:00 1027 + 1,2
Ortszeit Luftdruck NN (hPa) Tendenz (hPa in 3 Std.)
Sa, 28.01. 19:30 1029 + 0,3
Sa, 28.01. 19:20 1029 keine Meldung
Sa, 28.01. 19:10 1029 keine Meldung
Sa, 28.01. 19:00 1029 + 0,2
Sa, 28.01. 18:50 1029 keine Meldung
Sa, 28.01. 18:40 1029 keine Meldung
Sa, 28.01. 18:30 1029 - 0,1
Sa, 28.01. 18:00 1028 - 0,2
Sa, 28.01. 17:30 1028 - 0,4
Sa, 28.01. 17:00 1028 - 0,8
Sa, 28.01. 16:30 1028 - 0,6
Ortszeit Schneehöhe (cm)
Sa, 28.01. 19:00 0
Sa, 28.01. 13:00 0
Sa, 28.01. 7:00 0
Sa, 28.01. 1:00 0
Fr, 27.01. 19:00 0
Fr, 27.01. 13:00 0
Fr, 27.01. 7:00 0
Fr, 27.01. 1:00 0
Ortszeit Schneehöhe (cm)
Sa, 28.01. 19:30 0
Sa, 28.01. 19:20 0
Sa, 28.01. 19:10 0
Sa, 28.01. 19:00 0
Sa, 28.01. 18:50 0
Sa, 28.01. 18:40 0
Sa, 28.01. 18:30 0
Sa, 28.01. 18:00 0
Sa, 28.01. 17:30 0
Sa, 28.01. 17:00 0
Sa, 28.01. 16:30 0
Link zu dieser Seite / Seite empfehlen

Das Wetter in ...